.
WxDataArchive / Data Records for 2010-04-25
2010-04-24 April 2010 2010-04-26

Data Records for Sunday, 25 April 2010

Time	Temp	Chill	HIndex	Humid	Dewpt	 Wind 	HiWind	WindDir	Rain 	Barom 
-----	----	-----	------	-----	-----	------	------	-------	-----	----- 
00:00	60.5	60.5	60.5	95	59.1	1	3	135	0.00	29.413 
00:05	60.5	60.5	60.5	95	59.1	0	3	135	0.00	29.413 
00:10	60.5	60.5	60.5	94	58.8	1	4	90	0.00	29.413 
00:15	60.5	60.5	60.5	94	58.8	0	2	90	0.00	29.419 
00:20	60.5	60.5	60.5	94	58.8	0	1	90	0.00	29.419 
00:25	60.4	60.4	60.4	94	58.7	0	1	90	0.00	29.419 
00:30	60.4	60.4	60.4	94	58.7	0	1	90	0.00	29.428 
00:35	60.4	60.4	60.4	94	58.7	0	1	90	0.00	29.428 
00:40	60.4	60.4	60.4	94	58.7	0	0	---	0.00	29.428 
00:45	60.2	60.2	60.2	94	58.5	0	1	90	0.00	29.418 
00:50	60.2	60.2	60.2	94	58.5	0	1	90	0.00	29.418 
00:55	60.1	60.1	60.1	94	58.4	0	1	90	0.00	29.418 
01:00	60.1	60.1	60.1	94	58.4	0	0	---	0.00	29.415 
01:05	59.9	59.9	59.9	94	58.2	1	3	90	0.00	29.415 
01:10	59.8	59.8	59.8	94	58.1	0	2	90	0.00	29.415 
01:15	59.6	59.6	59.6	94	57.9	0	1	90	0.00	29.409 
01:20	59.5	59.5	59.5	94	57.8	0	1	90	0.00	29.409 
01:25	59.3	59.3	59.3	94	57.6	1	3	90	0.00	29.409 
01:30	59.3	59.3	59.3	94	57.6	1	3	90	0.00	29.406 
01:35	59.2	59.2	59.2	94	57.5	1	3	90	0.00	29.406 
01:40	59.2	59.2	59.2	94	57.5	1	3	90	0.00	29.406 
01:45	59.0	59.0	59.0	94	57.3	1	3	90	0.00	29.406 
01:50	59.0	59.0	59.0	94	57.3	0	1	90	0.00	29.406 
01:55	58.9	58.9	58.9	94	57.2	0	2	90	0.00	29.406 
02:00	58.7	58.7	58.7	94	57.0	0	1	90	0.00	29.408 
02:05	58.6	58.6	58.6	94	56.9	0	1	90	0.00	29.408 
02:10	58.4	58.4	58.4	94	56.7	0	1	90	0.00	29.408 
02:15	58.3	58.3	58.3	94	56.6	0	1	90	0.00	29.404 
02:20	58.0	58.0	58.0	94	56.3	1	3	90	0.00	29.404 
02:25	58.0	58.0	58.0	94	56.3	0	3	90	0.00	29.404 
02:30	57.8	57.8	57.8	94	56.1	1	3	90	0.00	29.399 
02:35	57.8	57.8	57.8	94	56.1	0	3	90	0.00	29.399 
02:40	57.6	57.6	57.6	94	55.9	0	2	90	0.00	29.399 
02:45	57.5	57.5	57.5	94	55.8	0	2	90	0.00	29.390 
02:50	57.3	57.3	57.3	94	55.6	0	1	90	0.00	29.390 
02:55	57.0	57.0	57.0	94	55.3	0	0	---	0.00	29.390 
03:00	56.7	56.7	56.7	93	54.7	0	1	90	0.00	29.391 
03:05	56.3	56.3	56.3	94	54.6	0	0	---	0.00	29.391 
03:10	56.0	56.0	56.0	94	54.3	0	1	90	0.00	29.391 
03:15	55.7	55.7	55.7	94	54.0	0	0	---	0.00	29.383 
03:20	55.4	55.4	55.4	94	53.7	0	1	90	0.00	29.383 
03:25	55.3	55.3	55.3	94	53.6	0	1	90	0.00	29.383 
03:30	55.3	55.3	55.3	95	53.9	0	1	90	0.00	29.378 
03:35	55.3	55.3	55.3	95	53.9	0	1	90	0.00	29.378 
03:40	55.3	55.3	55.3	95	53.9	0	1	90	0.00	29.378 
03:45	55.3	55.3	55.3	95	53.9	0	1	90	0.00	29.373 
03:50	55.3	55.3	55.3	95	53.9	0	2	90	0.00	29.373 
03:55	55.1	55.1	55.1	95	53.7	0	1	90	0.00	29.373 
04:00	55.1	55.1	55.1	95	53.7	0	2	90	0.00	29.374 
04:05	55.1	55.1	55.1	95	53.7	0	1	90	0.00	29.374 
04:10	55.1	55.1	55.1	95	53.7	0	1	90	0.00	29.374 
04:15	55.0	55.0	55.0	94	53.3	0	0	---	0.00	29.366 
04:20	55.0	55.0	55.0	94	53.3	0	1	90	0.00	29.366 
04:25	54.7	54.7	54.7	94	53.0	0	0	---	0.00	29.366 
04:30	54.5	54.5	54.5	94	52.8	0	1	90	0.00	29.364 
04:35	54.5	54.5	54.5	94	52.8	0	0	---	0.00	29.364 
04:40	54.4	54.4	54.4	94	52.7	0	2	90	0.00	29.364 
04:45	54.4	54.4	54.4	94	52.7	0	0	---	0.00	29.373 
04:50	54.4	54.4	54.4	95	53.0	0	0	---	0.00	29.373 
04:55	54.4	54.4	54.4	95	53.0	0	0	---	0.00	29.373 
05:00	54.4	54.4	54.4	95	53.0	0	0	---	0.00	29.370 
05:05	54.4	54.4	54.4	95	53.0	0	1	90	0.00	29.370 
05:10	54.4	54.4	54.4	95	53.0	0	0	---	0.00	29.370 
05:15	54.4	54.4	54.4	95	53.0	0	0	---	0.00	29.362 
05:20	54.4	54.4	54.4	95	53.0	0	1	90	0.00	29.362 
05:25	54.4	54.4	54.4	95	53.0	0	1	90	0.00	29.362 
05:30	54.5	54.5	54.5	95	53.1	0	2	90	0.00	29.358 
05:35	54.7	54.7	54.7	95	53.3	0	2	90	0.00	29.358 
05:40	55.0	55.0	55.0	95	53.6	1	2	90	0.00	29.358 
05:45	55.0	55.0	55.0	94	53.3	0	3	90	0.00	29.354 
05:50	55.1	55.1	55.1	94	53.4	0	3	112	0.00	29.354 
05:55	55.1	55.1	55.1	94	53.4	0	3	112	0.00	29.354 
06:00	55.1	55.1	55.1	94	53.4	0	1	112	0.00	29.355 
06:05	55.0	55.0	55.0	94	53.3	0	2	112	0.00	29.355 
06:10	55.0	55.0	55.0	94	53.3	0	2	112	0.00	29.355 
06:15	55.0	55.0	55.0	94	53.3	0	2	112	0.00	29.350 
06:20	55.0	55.0	55.0	94	53.3	0	2	112	0.00	29.350 
06:25	55.0	55.0	55.0	94	53.3	0	2	112	0.00	29.350 
06:30	55.1	55.1	55.1	94	53.4	0	2	112	0.00	29.347 
06:35	55.3	55.3	55.3	94	53.6	0	3	112	0.00	29.347 
06:40	55.4	55.4	55.4	94	53.7	0	2	112	0.00	29.347 
06:45	55.6	55.6	55.6	94	53.9	1	3	112	0.00	29.345 
06:50	55.6	55.6	55.6	94	53.9	1	3	112	0.00	29.345 
06:55	55.7	55.7	55.7	94	54.0	1	4	112	0.00	29.345 
07:00	55.7	55.7	55.7	94	54.0	1	4	112	0.00	29.343 
07:05	55.9	55.9	55.9	94	54.2	0	1	112	0.00	29.343 
07:10	56.0	56.0	56.0	94	54.3	0	1	112	0.00	29.343 
07:15	56.0	56.0	56.0	94	54.3	0	2	112	0.00	29.347 
07:20	56.0	56.0	56.0	94	54.3	1	3	112	0.00	29.347 
07:25	56.2	56.2	56.2	94	54.5	1	4	112	0.00	29.347 
07:30	56.3	56.3	56.3	94	54.6	1	4	68	0.00	29.353 
07:35	56.3	56.3	56.3	94	54.6	1	4	112	0.00	29.353 
07:40	56.5	56.5	56.5	94	54.8	0	2	112	0.00	29.353 
07:45	56.5	56.5	56.5	94	54.8	0	2	112	0.00	29.349 
07:50	56.7	56.7	56.7	94	55.0	1	3	112	0.00	29.349 
07:55	56.9	56.9	56.9	94	55.2	1	4	112	0.00	29.349 
08:00	56.9	56.9	56.9	94	55.2	1	4	112	0.00	29.340 
08:05	57.0	57.0	57.0	94	55.3	1	4	112	0.00	29.340 
08:10	57.2	57.2	57.2	94	55.5	1	3	90	0.00	29.340 
08:15	57.3	57.3	57.3	94	55.6	1	3	90	0.00	29.334 
08:20	57.5	57.5	57.5	94	55.8	1	4	112	0.00	29.334 
08:25	57.6	57.6	57.6	94	55.9	1	4	112	0.00	29.334 
08:30	57.8	57.8	57.8	94	56.1	1	4	112	0.00	29.327 
08:35	58.1	58.1	58.1	93	56.1	2	7	112	0.00	29.327 
08:40	58.3	58.3	58.3	93	56.3	1	4	90	0.00	29.327 
08:45	58.1	58.1	58.1	93	56.1	2	5	112	0.00	29.323 
08:50	58.3	58.3	58.3	92	56.0	2	4	112	0.00	29.323 
08:55	58.4	58.4	58.4	92	56.1	2	6	90	0.00	29.323 
09:00	58.7	58.7	58.7	92	56.4	2	6	90	0.00	29.319 
09:05	58.7	58.7	58.7	92	56.4	2	6	90	0.00	29.319 
09:10	58.9	58.9	58.9	92	56.6	1	6	90	0.00	29.319 
09:15	58.9	58.9	58.9	91	56.3	2	5	112	0.00	29.308 
09:20	58.9	58.9	58.9	91	56.3	2	5	112	0.00	29.308 
09:25	59.0	59.0	59.0	91	56.4	2	5	112	0.00	29.308 
09:30	59.0	59.0	59.0	91	56.4	3	10	90	0.00	29.306 
09:35	59.0	59.0	59.0	91	56.4	3	7	112	0.00	29.306 
09:40	59.3	59.3	59.3	91	56.7	2	6	90	0.00	29.306 
09:45	59.5	59.5	59.5	91	56.9	2	5	112	0.00	29.295 
09:50	59.9	59.9	59.9	90	57.0	3	6	112	0.00	29.295 
09:55	59.9	59.9	59.9	90	57.0	2	6	135	0.00	29.295 
10:00	59.9	59.9	59.9	90	57.0	2	6	112	0.00	29.294 
10:05	59.9	59.9	59.9	89	56.6	3	9	90	0.00	29.294 
10:10	60.1	60.1	60.1	89	56.8	2	7	90	0.00	29.294 
10:15	60.2	60.2	60.2	89	56.9	2	7	90	0.00	29.292 
10:20	60.2	60.2	60.2	89	56.9	1	5	90	0.00	29.292 
10:25	60.4	60.4	60.4	88	56.8	2	5	90	0.00	29.292 
10:30	60.5	60.5	60.5	88	56.9	2	5	90	0.00	29.287 
10:35	60.9	60.9	60.9	88	57.3	2	6	112	0.00	29.287 
10:40	61.0	61.0	61.0	87	57.1	1	5	90	0.00	29.287 
10:45	61.0	61.0	61.0	86	56.8	2	7	68	0.00	29.285 
10:50	61.3	61.3	61.3	86	57.1	1	3	68	0.00	29.285 
10:55	61.5	61.5	61.5	86	57.3	1	4	90	0.00	29.285 
11:00	61.8	61.8	61.8	86	57.6	2	6	90	0.00	29.279 
11:05	62.1	62.1	62.1	86	57.9	2	4	90	0.00	29.279 
11:10	62.6	62.6	62.6	85	58.0	1	4	90	0.00	29.279 
11:15	62.9	62.9	62.9	83	57.7	2	6	90	0.00	29.276 
11:20	63.1	63.1	63.1	82	57.5	2	7	90	0.00	29.276 
11:25	63.2	63.2	63.2	81	57.3	2	5	90	0.00	29.276 
11:30	63.2	63.2	63.2	80	56.9	2	7	90	0.00	29.272 
11:35	63.2	63.2	63.2	81	57.3	2	6	90	0.00	29.272 
11:40	63.2	63.2	63.2	81	57.3	1	4	90	0.00	29.272 
11:45	63.4	63.4	63.4	81	57.5	1	5	90	0.00	29.270 
11:50	64.0	64.0	64.0	81	58.0	2	4	90	0.00	29.270 
11:55	64.5	64.5	64.5	79	57.8	2	5	90	0.00	29.270 
12:00	64.3	64.3	64.3	78	57.3	1	4	68	0.00	29.261 
12:05	64.3	64.3	64.3	78	57.3	1	3	68	0.00	29.261 
12:10	64.5	64.5	64.5	76	56.8	2	5	90	0.00	29.261 
12:15	64.8	64.8	64.8	74	56.3	1	5	90	0.00	29.258 
12:20	65.0	65.0	65.0	74	56.5	1	4	90	0.00	29.258 
12:25	65.3	65.3	65.3	72	56.0	2	4	90	0.00	29.258 
12:30	65.5	65.5	65.5	72	56.2	1	4	112	0.00	29.258 
12:35	65.6	65.6	65.6	72	56.3	1	5	68	0.00	29.258 
12:40	65.6	65.6	65.6	66	53.9	1	4	248	0.00	29.258 
12:45	66.1	66.1	66.1	69	55.6	2	6	90	0.00	29.248 
12:50	66.3	66.3	66.3	69	55.8	1	6	112	0.00	29.248 
12:55	66.0	66.0	66.0	69	55.5	3	10	90	0.00	29.248 
13:00	63.2	63.2	63.2	63	50.4	6	17	248	0.00	29.275 
13:05	60.5	60.5	60.5	71	51.0	4	11	248	0.00	29.275 
13:10	59.2	59.2	59.2	77	52.0	2	9	248	0.00	29.275 
13:15	58.3	58.3	58.3	79	51.8	2	5	270	0.00	29.282 
13:20	57.8	57.8	57.8	80	51.7	2	7	270	0.00	29.282 
13:25	57.8	57.8	57.8	81	52.0	2	6	248	0.00	29.282 
13:30	58.0	58.0	58.0	82	52.5	2	9	248	0.00	29.266 
13:35	58.4	58.4	58.4	83	53.3	2	5	248	0.00	29.266 
13:40	58.9	58.9	58.9	83	53.7	1	4	270	0.00	29.266 
13:45	59.3	59.3	59.3	82	53.8	1	7	90	0.00	29.262 
13:50	59.6	59.6	59.6	82	54.1	1	7	270	0.00	29.262 
13:55	59.9	59.9	59.9	81	54.1	1	6	248	0.00	29.262 
14:00	60.1	60.1	60.1	81	54.2	1	5	248	0.00	29.260 
14:05	60.1	60.1	60.1	80	53.9	1	5	270	0.00	29.260 
14:10	60.4	60.4	60.4	81	54.5	0	5	225	0.00	29.260 
14:15	60.7	60.7	60.7	78	53.8	1	3	225	0.00	29.263 
14:20	61.0	61.0	61.0	77	53.7	2	5	68	0.00	29.263 
14:25	61.3	61.3	61.3	74	52.9	1	4	90	0.00	29.263 
14:30	62.0	62.0	62.0	72	52.9	1	5	90	0.00	29.261 
14:35	62.7	62.7	62.7	71	53.2	1	3	292	0.00	29.261 
14:40	63.2	63.2	63.2	68	52.5	2	4	248	0.00	29.261 
14:45	63.5	63.5	63.5	67	52.3	1	5	112	0.00	29.261 
14:50	63.9	63.9	63.9	66	52.3	2	6	270	0.00	29.261 
14:55	64.2	64.2	64.2	66	52.6	2	4	90	0.00	29.261 
15:00	64.3	64.3	64.3	63	51.4	2	6	90	0.00	29.261 
15:05	64.5	64.5	64.5	66	52.9	1	3	292	0.00	29.261 
15:10	64.5	64.5	64.5	64	52.0	1	6	90	0.00	29.261 
15:15	64.7	64.7	64.7	63	51.8	2	6	90	0.00	29.257 
15:20	64.7	64.7	64.7	63	51.8	1	3	112	0.00	29.257 
15:25	64.7	64.7	64.7	64	52.2	1	3	270	0.00	29.257 
15:30	64.3	64.3	64.3	64	51.9	1	3	90	0.00	29.253 
15:35	64.0	64.0	64.0	65	52.0	2	6	90	0.00	29.253 
15:40	63.7	63.7	63.7	66	52.1	2	10	90	0.00	29.253 
15:45	63.4	63.4	63.4	69	53.0	1	3	90	0.00	29.251 
15:50	63.4	63.4	63.4	69	53.0	1	6	90	0.00	29.251 
15:55	63.2	63.2	63.2	71	53.6	1	6	112	0.00	29.251 
16:00	63.2	63.2	63.2	72	54.0	2	5	112	0.00	29.250 
16:05	62.7	62.7	62.7	73	53.9	2	7	90	0.01	29.250 
16:10	62.3	62.3	62.3	74	53.9	1	3	90	0.00	29.250 
16:15	62.0	62.0	62.0	77	54.7	1	3	90	0.00	29.251 
16:20	61.6	61.6	61.6	77	54.3	1	5	135	0.00	29.251 
16:25	61.3	61.3	61.3	79	54.7	2	4	112	0.00	29.251 
16:30	60.9	60.9	60.9	80	54.7	2	3	112	0.00	29.252 
16:35	60.5	60.5	60.5	81	54.6	1	2	90	0.01	29.252 
16:40	59.8	59.8	59.8	84	55.0	2	5	90	0.01	29.252 
16:45	59.0	59.0	59.0	87	55.1	1	4	112	0.02	29.254 
16:50	58.3	58.3	58.3	88	54.8	2	5	112	0.02	29.254 
16:55	57.6	57.6	57.6	90	54.7	2	7	90	0.03	29.254 
17:00	57.2	57.2	57.2	91	54.6	2	6	90	0.02	29.246 
17:05	56.9	56.9	56.9	92	54.6	2	6	112	0.02	29.246 
17:10	56.7	56.7	56.7	92	54.4	3	8	112	0.00	29.246 
17:15	56.6	56.6	56.6	93	54.6	3	7	112	0.01	29.252 
17:20	56.5	56.5	56.5	93	54.5	3	7	112	0.01	29.252 
17:25	56.2	56.2	56.2	93	54.2	3	10	68	0.01	29.252 
17:30	55.9	55.9	55.9	93	53.9	3	8	90	0.05	29.254 
17:35	55.7	55.7	55.7	94	54.0	2	9	90	0.02	29.254 
17:40	55.7	55.7	55.7	94	54.0	2	10	90	0.01	29.254 
17:45	55.6	55.6	55.6	94	53.9	3	11	90	0.02	29.252 
17:50	55.4	55.4	55.4	94	53.7	3	11	45	0.01	29.252 
17:55	55.4	55.4	55.4	94	53.7	3	10	68	0.01	29.252 
18:00	55.3	55.3	55.3	95	53.9	3	7	90	0.01	29.255 
18:05	55.1	55.1	55.1	95	53.7	5	14	112	0.01	29.255 
18:10	55.1	55.1	55.1	95	53.7	4	11	90	0.01	29.255 
18:15	55.1	55.1	55.1	95	53.7	5	14	112	0.02	29.256 
18:20	55.1	55.1	55.1	95	53.7	4	11	90	0.02	29.256 
18:25	55.1	55.1	55.1	95	53.7	3	7	112	0.02	29.256 
18:30	55.3	55.3	55.3	95	53.9	2	5	112	0.01	29.256 
18:35	55.3	55.3	55.3	95	53.9	2	5	112	0.01	29.256 
18:40	55.1	55.1	55.1	95	53.7	3	12	112	0.02	29.256 
18:45	54.8	54.8	54.8	95	53.4	3	7	90	0.02	29.257 
18:50	54.8	54.8	54.8	94	53.1	2	5	90	0.01	29.257 
18:55	54.7	54.7	54.7	95	53.3	3	13	112	0.02	29.257 
19:00	54.5	54.5	54.5	95	53.1	2	7	90	0.01	29.260 
19:05	54.5	54.5	54.5	95	53.1	2	7	90	0.00	29.260 
19:10	54.2	54.2	54.2	95	52.8	2	5	90	0.01	29.260 
19:15	54.2	54.2	54.2	95	52.8	2	7	90	0.01	29.262 
19:20	53.9	53.9	53.9	95	52.5	4	15	112	0.01	29.262 
19:25	53.9	53.9	53.9	95	52.5	3	9	90	0.01	29.262 
19:30	53.9	53.9	53.9	95	52.5	3	10	90	0.02	29.263 
19:35	53.8	53.8	53.8	96	52.7	1	4	112	0.01	29.263 
19:40	53.6	53.6	53.6	96	52.5	2	7	112	0.02	29.263 
19:45	53.6	53.6	53.6	96	52.5	2	6	90	0.01	29.261 
19:50	53.3	53.3	53.3	95	51.9	3	13	68	0.01	29.261 
19:55	53.1	53.1	53.1	95	51.7	3	11	112	0.02	29.261 
20:00	52.9	52.9	52.9	95	51.5	3	12	112	0.00	29.267 
20:05	52.8	52.8	52.8	96	51.7	3	12	90	0.01	29.267 
20:10	52.6	52.6	52.6	96	51.5	2	8	90	0.01	29.267 
20:15	52.5	52.5	52.5	95	51.1	2	5	112	0.01	29.268 
20:20	52.2	52.2	52.2	95	50.8	2	9	90	0.01	29.268 
20:25	51.9	51.9	51.9	95	50.5	3	14	45	0.00	29.268 
20:30	51.7	51.7	51.7	96	50.6	3	7	112	0.01	29.271 
20:35	51.4	51.4	51.4	96	50.3	2	9	112	0.00	29.271 
20:40	51.3	51.3	51.3	96	50.2	3	7	90	0.01	29.271 
20:45	51.3	51.3	51.3	96	50.2	2	9	90	0.00	29.274 
20:50	51.1	51.1	51.1	96	50.0	2	12	112	0.00	29.274 
20:55	51.1	51.1	51.1	96	50.0	3	11	112	0.00	29.274 
21:00	51.1	51.1	51.1	96	50.0	2	6	90	0.01	29.278 
21:05	51.0	51.0	51.0	96	49.9	1	6	45	0.00	29.278 
21:10	50.8	50.8	50.8	96	49.7	2	6	90	0.01	29.278 
21:15	50.8	50.8	50.8	96	49.7	2	5	68	0.01	29.283 
21:20	50.7	50.7	50.7	96	49.6	2	7	90	0.00	29.283 
21:25	50.5	50.5	50.5	96	49.4	3	10	90	0.01	29.283 
21:30	50.4	50.4	50.4	96	49.3	2	7	90	0.01	29.287 
21:35	50.4	50.4	50.4	96	49.3	2	10	68	0.00	29.287 
21:40	50.2	50.2	50.2	96	49.1	2	9	68	0.00	29.287 
21:45	50.2	50.2	50.2	96	49.1	2	10	45	0.01	29.287 
21:50	50.2	50.2	50.2	96	49.1	1	5	135	0.00	29.287 
21:55	50.2	50.2	50.2	96	49.1	2	7	112	0.00	29.287 
22:00	50.1	50.1	50.1	96	49.0	2	5	68	0.00	29.288 
22:05	50.1	50.1	50.1	96	49.0	2	7	90	0.01	29.288 
22:10	50.1	50.1	50.1	96	49.0	1	4	22	0.00	29.288 
22:15	50.1	50.1	50.1	96	49.0	1	5	90	0.00	29.287 
22:20	50.1	50.1	50.1	96	49.0	2	7	135	0.00	29.287 
22:25	50.1	50.1	50.1	96	49.0	2	10	112	0.01	29.287 
22:30	50.1	50.1	50.1	96	49.0	2	9	90	0.00	29.289 
22:35	50.1	50.1	50.1	96	49.0	3	9	112	0.00	29.289 
22:40	50.1	50.1	50.1	96	49.0	1	9	45	0.00	29.289 
22:45	50.2	50.2	50.2	96	49.1	1	3	68	0.00	29.288 
22:50	50.1	50.1	50.1	96	49.0	2	9	90	0.00	29.288 
22:55	50.1	50.1	50.1	96	49.0	2	5	68	0.01	29.288 
23:00	50.1	50.1	50.1	96	49.0	2	11	68	0.00	29.287 
23:05	50.1	50.1	50.1	96	49.0	1	5	22	0.00	29.287 
23:10	50.1	50.1	50.1	95	48.7	2	9	112	0.00	29.287 
23:15	50.1	50.1	50.1	96	49.0	2	7	68	0.00	29.285 
23:20	50.1	50.1	50.1	95	48.7	2	6	112	0.00	29.285 
23:25	50.1	50.1	50.1	95	48.7	2	6	135	0.01	29.285 
23:30	50.1	50.1	50.1	95	48.7	2	6	112	0.00	29.284 
23:35	49.9	49.9	49.9	95	48.5	1	5	45	0.00	29.284 
23:40	49.9	49.9	49.9	95	48.5	1	4	68	0.00	29.284 
23:45	49.9	49.9	49.9	95	48.5	2	10	45	0.00	29.282 
23:50	49.9	49.9	49.9	95	48.5	1	5	68	0.00	29.282 
23:55	49.8	49.8	49.8	95	48.4	2	12	68	0.00	29.282 

CoCoRaHS
IN-AL-39
A2 Web Hosting
Creative Commons License
GoDaddy
search engine by freefind advanced

loaded 2018-11-17 05:34:08 • last modified 2010-11-18 10:43:29
Privacy PolicyDisclaimer
• wx.awcolley.com is powered by PmWiki v.2002016 •
• all content (unless otherwise noted) © 2018 A W Colley